Time;durP1;ratioP1;P1;durP2;ratioP2;P2;SDS_P1;SDS_P2;PMS_P1;PMS_P2;Temp;Humidity;BMP_temperature;BMP_pressure;BME280_temperature;BME280_humidity;BME280_pressure;Samples;Min_cycle;Max_cycle;Signal;HPM_P1;HPM_P2
2023/12/26 00:00:38;;;;;;;15.10;13.32;;;;;;;;;;4968386;28;20027;-54
2023/12/26 00:03:06;;;;;;;14.60;11.90;;;;;;;;;;4968323;28;20579;-54
2023/12/26 00:05:32;;;;;;;14.45;11.38;;;;;;;;;;4968367;28;20441;-53
2023/12/26 00:07:58;;;;;;;14.57;11.80;;;;;;;;;;4979808;28;20535;-48
2023/12/26 00:10:24;;;;;;;14.30;11.05;;;;;;;;;;4984571;28;20077;-50
2023/12/26 00:12:50;;;;;;;13.98;10.13;;;;;;;;;;4978822;28;20030;-51
2023/12/26 00:15:17;;;;;;;14.30;10.43;;;;;;;;;;4976074;28;20073;-53
2023/12/26 00:17:43;;;;;;;14.07;10.18;;;;;;;;;;4977798;28;20038;-47
2023/12/26 00:20:10;;;;;;;14.70;11.82;;;;;;;;;;4976199;28;20038;-50
2023/12/26 00:22:36;;;;;;;14.13;10.60;;;;;;;;;;4974580;28;20035;-53
2023/12/26 00:25:03;;;;;;;14.60;11.85;;;;;;;;;;4968314;28;20034;-47
2023/12/26 00:27:29;;;;;;;17.13;14.50;;;;;;;;;;4975844;28;20026;-50
2023/12/26 00:29:55;;;;;;;15.30;13.18;;;;;;;;;;4974604;28;20033;-45
2023/12/26 00:32:21;;;;;;;14.80;12.30;;;;;;;;;;4979627;28;20109;-52
2023/12/26 00:34:46;;;;;;;17.27;12.20;;;;;;;;;;4981721;28;20690;-47
2023/12/26 00:37:13;;;;;;;14.40;11.15;;;;;;;;;;4991760;28;20027;-49
2023/12/26 00:39:40;;;;;;;14.30;10.85;;;;;;;;;;4991762;28;20030;-50
2023/12/26 00:42:06;;;;;;;14.23;10.85;;;;;;;;;;4992031;28;20030;-49
2023/12/26 00:44:32;;;;;;;14.65;12.10;;;;;;;;;;5051899;23;20041;-46
2023/12/26 00:46:58;;;;;;;15.00;11.95;;;;;;;;;;5035027;28;20025;-52
2023/12/26 00:49:24;;;;;;;15.48;12.27;;;;;;;;;;5052562;28;20574;-48
2023/12/26 00:51:52;;;;;;;14.82;11.48;;;;;;;;;;5052902;28;20068;-47
2023/12/26 00:54:18;;;;;;;16.27;11.40;;;;;;;;;;5052718;28;20033;-45
2023/12/26 00:56:44;;;;;;;14.27;10.85;;;;;;;;;;5053099;28;20036;-50
2023/12/26 00:59:10;;;;;;;14.90;11.75;;;;;;;;;;5052888;28;20025;-48
2023/12/26 01:01:36;;;;;;;14.80;11.98;;;;;;;;;;5053333;28;20558;-48
2023/12/26 01:04:02;;;;;;;15.10;13.43;;;;;;;;;;5053562;28;20171;-44
2023/12/26 01:06:28;;;;;;;14.90;12.70;;;;;;;;;;5053555;28;20151;-50
2023/12/26 01:08:54;;;;;;;14.63;11.98;;;;;;;;;;5053618;28;20029;-49
2023/12/26 01:11:20;;;;;;;14.20;11.02;;;;;;;;;;5053443;28;20417;-50
2023/12/26 01:13:46;;;;;;;14.60;11.80;;;;;;;;;;5035385;28;20061;-49
2023/12/26 01:16:12;;;;;;;14.80;12.20;;;;;;;;;;5053317;28;20045;-51
2023/12/26 01:18:38;;;;;;;15.10;13.15;;;;;;;;;;5053370;28;20049;-50
2023/12/26 01:21:05;;;;;;;14.40;11.40;;;;;;;;;;5053180;28;20060;-46
2023/12/26 01:23:32;;;;;;;14.50;11.40;;;;;;;;;;5053369;28;20017;-49
2023/12/26 01:25:57;;;;;;;14.48;11.60;;;;;;;;;;5053366;28;20064;-51
2023/12/26 01:28:23;;;;;;;14.20;10.63;;;;;;;;;;5035425;28;20064;-49
2023/12/26 01:30:49;;;;;;;14.27;10.90;;;;;;;;;;5035458;28;20024;-50
2023/12/26 01:33:15;;;;;;;14.27;10.85;;;;;;;;;;5048287;28;20018;-49
2023/12/26 01:35:41;;;;;;;14.63;11.90;;;;;;;;;;5038856;28;20119;-51
2023/12/26 01:38:08;;;;;;;14.23;10.73;;;;;;;;;;5033185;28;20029;-48
2023/12/26 01:40:34;;;;;;;14.40;11.30;;;;;;;;;;5031713;28;20025;-46
2023/12/26 01:43:00;;;;;;;14.80;12.48;;;;;;;;;;5040977;28;20175;-48
2023/12/26 01:45:26;;;;;;;15.00;12.98;;;;;;;;;;5032775;28;20021;-46
2023/12/26 01:47:55;;;;;;;14.65;12.00;;;;;;;;;;5031722;28;20029;-45
2023/12/26 01:50:22;;;;;;;16.65;14.95;;;;;;;;;;5032831;28;20028;-48
2023/12/26 01:52:48;;;;;;;16.83;15.13;;;;;;;;;;5032621;28;20017;-49
2023/12/26 01:55:17;;;;;;;16.75;15.05;;;;;;;;;;5031180;28;20487;-47
2023/12/26 01:57:43;;;;;;;16.65;14.95;;;;;;;;;;5032629;28;20564;-46
2023/12/26 02:00:09;;;;;;;15.43;13.73;;;;;;;;;;5032763;28;20036;-49
2023/12/26 02:02:35;;;;;;;15.55;13.93;;;;;;;;;;5040410;28;20731;-47
2023/12/26 02:05:02;;;;;;;14.90;12.68;;;;;;;;;;5032556;28;20025;-50
2023/12/26 02:07:28;;;;;;;14.80;12.60;;;;;;;;;;5031279;28;20372;-52
2023/12/26 02:09:54;;;;;;;14.85;12.50;;;;;;;;;;5032328;28;20017;-49
2023/12/26 02:12:20;;;;;;;15.23;13.63;;;;;;;;;;5032040;28;20024;-50
2023/12/26 02:14:47;;;;;;;14.80;12.55;;;;;;;;;;5032349;28;20029;-52
2023/12/26 02:17:18;;;;;;;14.50;11.55;;;;;;;;;;5031067;28;20028;-50
2023/12/26 02:19:46;;;;;;;14.20;10.55;;;;;;;;;;5030608;28;20041;-48
2023/12/26 02:22:12;;;;;;;13.88;9.60;;;;;;;;;;5030657;28;20025;-48
2023/12/26 02:24:42;;;;;;;13.90;9.85;;;;;;;;;;5032533;28;20040;-49
2023/12/26 02:27:09;;;;;;;14.30;11.02;;;;;;;;;;5043855;28;20013;-49
2023/12/26 02:29:35;;;;;;;14.25;10.80;;;;;;;;;;5017716;28;20125;-47
2023/12/26 02:32:02;;;;;;;13.98;9.93;;;;;;;;;;5031982;28;20026;-48
2023/12/26 02:34:28;;;;;;;13.82;9.75;;;;;;;;;;5032152;28;20026;-48
2023/12/26 02:36:54;;;;;;;14.27;10.75;;;;;;;;;;5032145;28;20048;-51
2023/12/26 02:39:20;;;;;;;14.20;10.70;;;;;;;;;;5032001;28;20037;-46
2023/12/26 02:41:46;;;;;;;14.20;10.52;;;;;;;;;;5031816;28;20095;-49
2023/12/26 02:44:12;;;;;;;14.18;10.60;;;;;;;;;;5014093;28;20029;-47
2023/12/26 02:46:38;;;;;;;14.38;11.20;;;;;;;;;;5014349;28;20029;-49
2023/12/26 02:49:04;;;;;;;14.20;10.63;;;;;;;;;;5014678;28;20033;-51
2023/12/26 02:51:30;;;;;;;15.00;13.30;;;;;;;;;;5014361;28;20396;-48
2023/12/26 02:53:57;;;;;;;14.95;12.95;;;;;;;;;;5032201;28;20029;-47
2023/12/26 02:56:23;;;;;;;14.30;11.02;;;;;;;;;;5031914;28;20099;-47
2023/12/26 02:58:49;;;;;;;14.52;11.68;;;;;;;;;;5013975;28;20017;-48
2023/12/26 03:01:15;;;;;;;14.60;11.95;;;;;;;;;;5013900;28;20025;-51
2023/12/26 03:03:41;;;;;;;14.57;11.82;;;;;;;;;;5031748;28;20403;-51
2023/12/26 03:06:07;;;;;;;14.55;11.70;;;;;;;;;;5031732;28;20017;-46
2023/12/26 03:08:33;;;;;;;14.70;12.13;;;;;;;;;;5031636;28;20029;-47
2023/12/26 03:10:59;;;;;;;14.40;11.38;;;;;;;;;;5031506;28;20061;-49
2023/12/26 03:13:25;;;;;;;14.73;12.73;;;;;;;;;;5013727;28;20064;-50
2023/12/26 03:15:51;;;;;;;14.50;11.85;;;;;;;;;;5035882;28;20029;-46
2023/12/26 03:18:17;;;;;;;14.40;11.30;;;;;;;;;;5039417;28;20083;-48
2023/12/26 03:20:43;;;;;;;14.60;11.88;;;;;;;;;;5030708;28;20021;-49
2023/12/26 03:23:09;;;;;;;14.00;10.20;;;;;;;;;;5029460;28;20447;-46
2023/12/26 03:25:35;;;;;;;13.95;9.93;;;;;;;;;;5029643;28;20058;-51
2023/12/26 03:28:01;;;;;;;14.10;10.38;;;;;;;;;;5030985;28;20071;-49
2023/12/26 03:30:28;;;;;;;14.00;10.18;;;;;;;;;;5031125;28;20030;-47
2023/12/26 03:32:54;;;;;;;13.95;10.25;;;;;;;;;;5030201;28;20116;-46
2023/12/26 03:35:20;;;;;;;14.32;11.38;;;;;;;;;;5031611;28;20048;-45
2023/12/26 03:37:47;;;;;;;14.65;12.13;;;;;;;;;;5030215;28;20112;-46
2023/12/26 03:40:14;;;;;;;14.55;11.73;;;;;;;;;;5030653;28;20021;-52
2023/12/26 03:42:42;;;;;;;14.77;12.70;;;;;;;;;;5030229;28;20013;-50
2023/12/26 03:45:08;;;;;;;15.50;13.80;;;;;;;;;;5035279;28;20021;-49
2023/12/26 03:47:34;;;;;;;14.93;12.88;;;;;;;;;;5029914;28;20027;-46
2023/12/26 03:50:00;;;;;;;14.70;12.25;;;;;;;;;;5050168;28;20017;-49
2023/12/26 03:52:26;;;;;;;14.70;12.45;;;;;;;;;;5050138;28;20029;-46
2023/12/26 03:54:53;;;;;;;15.25;13.65;;;;;;;;;;5050054;28;20025;-49
2023/12/26 03:57:19;;;;;;;15.00;13.00;;;;;;;;;;5050111;28;20048;-46
2023/12/26 03:59:46;;;;;;;15.10;13.30;;;;;;;;;;5050228;28;20064;-47
2023/12/26 04:02:11;;;;;;;15.93;14.23;;;;;;;;;;5049913;28;20028;-50
2023/12/26 04:04:37;;;;;;;16.70;15.00;;;;;;;;;;5049871;28;20113;-52
2023/12/26 04:07:04;;;;;;;16.23;14.52;;;;;;;;;;5050248;28;20433;-48
2023/12/26 04:09:30;;;;;;;14.80;12.27;;;;;;;;;;5034045;28;20018;-48
2023/12/26 04:11:56;;;;;;;14.00;10.00;;;;;;;;;;5030076;28;20668;-49
2023/12/26 04:14:21;;;;;;;14.30;11.20;;;;;;;;;;5028829;28;20033;-48
2023/12/26 04:16:47;;;;;;;14.30;10.85;;;;;;;;;;5029118;28;20033;-49
2023/12/26 04:19:13;;;;;;;14.60;11.90;;;;;;;;;;5035923;28;20017;-51
2023/12/26 04:21:39;;;;;;;15.00;13.07;;;;;;;;;;5041747;28;20096;-49
2023/12/26 04:24:06;;;;;;;16.05;14.35;;;;;;;;;;5050085;28;20036;-51
2023/12/26 04:26:32;;;;;;;18.20;16.50;;;;;;;;;;5050221;28;20021;-51
2023/12/26 04:28:57;;;;;;;17.30;15.60;;;;;;;;;;5049996;28;20368;-46
2023/12/26 04:31:23;;;;;;;17.35;15.65;;;;;;;;;;5049604;28;20013;-48
2023/12/26 04:33:49;;;;;;;15.90;14.20;;;;;;;;;;5049895;28;20078;-50
2023/12/26 04:36:15;;;;;;;14.80;12.38;;;;;;;;;;5050567;28;20021;-48
2023/12/26 04:38:41;;;;;;;14.60;11.65;;;;;;;;;;5050759;28;20039;-50
2023/12/26 04:41:11;;;;;;;14.50;11.40;;;;;;;;;;5032517;28;20025;-52
2023/12/26 04:43:37;;;;;;;14.50;11.50;;;;;;;;;;5050141;28;20120;-47
2023/12/26 04:46:03;;;;;;;14.45;11.50;;;;;;;;;;5050139;28;20442;-48
2023/12/26 04:48:30;;;;;;;14.30;11.23;;;;;;;;;;5050391;28;20386;-53
2023/12/26 04:50:56;;;;;;;14.25;11.15;;;;;;;;;;5032542;28;20510;-53
2023/12/26 04:53:24;;;;;;;14.65;12.05;;;;;;;;;;5050257;28;20021;-49
2023/12/26 04:55:50;;;;;;;14.75;12.30;;;;;;;;;;5050379;28;20078;-48
2023/12/26 04:58:16;;;;;;;14.75;12.30;;;;;;;;;;5050276;28;20111;-52
2023/12/26 05:00:43;;;;;;;14.50;11.65;;;;;;;;;;5050223;28;20025;-50
2023/12/26 05:03:09;;;;;;;14.50;11.50;;;;;;;;;;5050599;28;20642;-49
2023/12/26 05:05:35;;;;;;;14.50;11.50;;;;;;;;;;5032512;28;20110;-52
2023/12/26 05:08:01;;;;;;;14.52;11.50;;;;;;;;;;5050320;28;20087;-47
2023/12/26 05:10:27;;;;;;;14.30;11.05;;;;;;;;;;5050587;28;20025;-50
2023/12/26 05:12:53;;;;;;;14.30;11.00;;;;;;;;;;5050478;28;20029;-49
2023/12/26 05:15:19;;;;;;;14.10;10.35;;;;;;;;;;5050366;28;20013;-52
2023/12/26 05:17:45;;;;;;;14.10;10.30;;;;;;;;;;5050223;28;20021;-52
2023/12/26 05:20:11;;;;;;;14.07;10.30;;;;;;;;;;5050334;28;20140;-47
2023/12/26 05:22:37;;;;;;;14.10;10.30;;;;;;;;;;5034735;28;20044;-50
2023/12/26 05:25:03;;;;;;;13.75;9.30;;;;;;;;;;5037365;28;20021;-50
2023/12/26 05:27:29;;;;;;;13.35;8.38;;;;;;;;;;5055039;28;20078;-52
2023/12/26 05:29:55;;;;;;;13.45;8.48;;;;;;;;;;5053912;28;20025;-50
2023/12/26 05:32:22;;;;;;;13.45;8.20;;;;;;;;;;5036198;28;20047;-50
2023/12/26 05:34:48;;;;;;;13.18;7.80;;;;;;;;;;5043775;28;20043;-50
2023/12/26 05:37:14;;;;;;;12.48;7.30;;;;;;;;;;5034056;28;20046;-49
2023/12/26 05:39:43;;;;;;;11.85;6.95;;;;;;;;;;5033996;28;20040;-51
2023/12/26 05:42:09;;;;;;;11.98;7.05;;;;;;;;;;5033621;28;20018;-50
2023/12/26 05:44:35;;;;;;;11.30;6.53;;;;;;;;;;5033265;28;20621;-50
2023/12/26 05:47:03;;;;;;;9.45;5.60;;;;;;;;;;5033355;28;20024;-52
2023/12/26 05:49:29;;;;;;;9.80;5.78;;;;;;;;;;5033819;28;20029;-52
2023/12/26 05:51:55;;;;;;;8.75;5.15;;;;;;;;;;5033278;28;20018;-54
2023/12/26 05:54:21;;;;;;;8.18;4.85;;;;;;;;;;5043128;28;20399;-51
2023/12/26 05:56:47;;;;;;;7.40;4.45;;;;;;;;;;5035198;28;20026;-48
2023/12/26 05:59:13;;;;;;;8.75;4.90;;;;;;;;;;5033076;28;20103;-50
2023/12/26 06:01:44;;;;;;;8.57;4.95;;;;;;;;;;5032913;28;20615;-51
2023/12/26 06:04:10;;;;;;;8.48;4.63;;;;;;;;;;5033014;28;20026;-50
2023/12/26 06:06:36;;;;;;;7.07;4.25;;;;;;;;;;5032955;28;20106;-51
2023/12/26 06:09:02;;;;;;;7.20;4.30;;;;;;;;;;5052739;28;20561;-49
2023/12/26 06:11:28;;;;;;;7.10;4.20;;;;;;;;;;5052762;28;20021;-49
2023/12/26 06:13:54;;;;;;;6.97;4.20;;;;;;;;;;5051967;28;20025;-53
2023/12/26 06:16:20;;;;;;;8.63;4.68;;;;;;;;;;5034844;28;20028;-51
2023/12/26 06:18:46;;;;;;;8.60;4.88;;;;;;;;;;5052679;28;20036;-54
2023/12/26 06:21:12;;;;;;;6.70;4.00;;;;;;;;;;5052544;28;20123;-52
2023/12/26 06:23:38;;;;;;;7.43;4.20;;;;;;;;;;5052352;28;20029;-47
2023/12/26 06:26:05;;;;;;;9.82;6.30;;;;;;;;;;5053668;28;20017;-52
2023/12/26 06:28:31;;;;;;;7.20;4.22;;;;;;;;;;5053200;28;20426;-50
2023/12/26 06:30:57;;;;;;;8.60;5.10;;;;;;;;;;5035439;28;20028;-48
2023/12/26 06:33:23;;;;;;;7.40;4.40;;;;;;;;;;5052546;28;20021;-52
2023/12/26 06:35:50;;;;;;;6.97;4.20;;;;;;;;;;5053438;28;20029;-49
2023/12/26 06:38:16;;;;;;;7.45;4.45;;;;;;;;;;5052951;28;20029;-50
2023/12/26 06:40:43;;;;;;;7.10;4.25;;;;;;;;;;5053197;28;20048;-52
2023/12/26 06:43:14;;;;;;;7.28;4.30;;;;;;;;;;5074671;23;20045;-48
2023/12/26 06:45:40;;;;;;;10.07;5.35;;;;;;;;;;4979885;28;20140;-50
2023/12/26 06:48:06;;;;;;;8.18;4.70;;;;;;;;;;5013330;28;20541;-48
2023/12/26 06:50:32;;;;;;;8.40;4.90;;;;;;;;;;4992641;28;20046;-50
2023/12/26 06:52:58;;;;;;;9.02;5.40;;;;;;;;;;5012503;28;20395;-53
2023/12/26 06:55:24;;;;;;;8.07;4.80;;;;;;;;;;4993225;28;20030;-53
2023/12/26 06:57:50;;;;;;;10.70;5.18;;;;;;;;;;5001197;28;20030;-47
2023/12/26 07:00:18;;;;;;;7.50;4.43;;;;;;;;;;5006865;28;20033;-46
2023/12/26 07:02:44;;;;;;;7.60;4.50;;;;;;;;;;5012555;28;20389;-49
2023/12/26 07:05:10;;;;;;;8.20;4.85;;;;;;;;;;5012766;28;20117;-50
2023/12/26 07:07:36;;;;;;;9.98;5.10;;;;;;;;;;5012989;28;20101;-49
2023/12/26 07:10:02;;;;;;;7.70;4.60;;;;;;;;;;5012898;28;20028;-52
2023/12/26 07:12:28;;;;;;;7.90;4.78;;;;;;;;;;5012660;28;20048;-48
2023/12/26 07:14:54;;;;;;;7.70;4.60;;;;;;;;;;5012240;28;20023;-51
2023/12/26 07:17:20;;;;;;;7.28;4.40;;;;;;;;;;5012614;28;20448;-48
2023/12/26 07:19:46;;;;;;;7.03;4.15;;;;;;;;;;5011916;28;20073;-49
2023/12/26 07:22:12;;;;;;;6.70;4.00;;;;;;;;;;5011125;28;20117;-48
2023/12/26 07:24:38;;;;;;;6.80;4.00;;;;;;;;;;5011369;28;20026;-49
2023/12/26 07:27:04;;;;;;;8.38;5.05;;;;;;;;;;4993758;28;20595;-49
2023/12/26 07:29:30;;;;;;;6.70;4.00;;;;;;;;;;5011184;28;20487;-46
2023/12/26 07:31:56;;;;;;;8.80;4.35;;;;;;;;;;4993335;28;20022;-49
2023/12/26 07:34:22;;;;;;;7.10;4.20;;;;;;;;;;5011140;28;20037;-48
2023/12/26 07:36:48;;;;;;;6.68;3.95;;;;;;;;;;4976804;28;20485;-52
2023/12/26 07:39:14;;;;;;;7.63;4.60;;;;;;;;;;5007795;28;20033;-52
2023/12/26 07:41:41;;;;;;;7.38;4.30;;;;;;;;;;4991288;28;20056;-53
2023/12/26 07:44:07;;;;;;;7.50;4.40;;;;;;;;;;4996436;28;20087;-49
2023/12/26 07:46:33;;;;;;;7.95;5.40;;;;;;;;;;5010583;28;20595;-49
2023/12/26 07:48:59;;;;;;;7.35;4.40;;;;;;;;;;5010715;28;20048;-49
2023/12/26 07:51:25;;;;;;;6.90;4.10;;;;;;;;;;5010657;28;20097;-49
2023/12/26 07:53:53;;;;;;;7.50;4.38;;;;;;;;;;4974353;28;20058;-47
2023/12/26 07:56:19;;;;;;;10.18;4.40;;;;;;;;;;4972044;28;20417;-54
2023/12/26 07:58:45;;;;;;;7.80;4.70;;;;;;;;;;4972058;28;20034;-47
2023/12/26 08:01:13;;;;;;;7.90;4.70;;;;;;;;;;4971966;28;20034;-53
2023/12/26 08:03:39;;;;;;;8.10;4.90;;;;;;;;;;4970479;28;20030;-52
2023/12/26 08:06:05;;;;;;;7.80;4.60;;;;;;;;;;4971793;28;20105;-52
2023/12/26 08:08:31;;;;;;;7.55;4.50;;;;;;;;;;4971916;28;20106;-48
2023/12/26 08:10:57;;;;;;;8.10;4.57;;;;;;;;;;5003190;28;20103;-54
2023/12/26 08:13:24;;;;;;;8.93;4.75;;;;;;;;;;5010529;28;20460;-48
2023/12/26 08:15:50;;;;;;;18.70;5.25;;;;;;;;;;5010523;28;20044;-51
2023/12/26 08:18:16;;;;;;;7.70;4.60;;;;;;;;;;5003820;28;20402;-50
2023/12/26 08:20:42;;;;;;;7.15;4.30;;;;;;;;;;4988178;28;20109;-48
2023/12/26 08:23:08;;;;;;;7.68;4.60;;;;;;;;;;4990904;28;20029;-50
2023/12/26 08:25:34;;;;;;;7.90;4.70;;;;;;;;;;4990809;28;20027;-51
2023/12/26 08:28:01;;;;;;;7.70;4.55;;;;;;;;;;4976544;28;20367;-46
2023/12/26 08:30:27;;;;;;;9.65;5.38;;;;;;;;;;4980459;28;20078;-49
2023/12/26 08:32:53;;;;;;;7.80;4.50;;;;;;;;;;4989098;28;20027;-49
2023/12/26 08:35:19;;;;;;;7.70;4.60;;;;;;;;;;4990516;28;20022;-48
2023/12/26 08:37:45;;;;;;;7.57;4.50;;;;;;;;;;4970649;28;20488;-52
2023/12/26 08:40:11;;;;;;;8.27;4.88;;;;;;;;;;4990508;28;20443;-48
2023/12/26 08:42:37;;;;;;;8.60;5.00;;;;;;;;;;4989958;28;20022;-46
2023/12/26 08:45:03;;;;;;;8.18;4.80;;;;;;;;;;4990107;28;20022;-54
2023/12/26 08:47:29;;;;;;;7.70;4.60;;;;;;;;;;4990357;28;20023;-46
2023/12/26 08:49:56;;;;;;;8.23;4.70;;;;;;;;;;4972121;28;20019;-53
2023/12/26 08:52:23;;;;;;;8.68;5.45;;;;;;;;;;4990521;28;20061;-51
2023/12/26 08:54:49;;;;;;;8.82;4.90;;;;;;;;;;4971267;28;20031;-49
2023/12/26 08:57:15;;;;;;;9.50;4.70;;;;;;;;;;4993408;28;20029;-48
2023/12/26 08:59:41;;;;;;;8.50;4.95;;;;;;;;;;4974046;28;20408;-49
2023/12/26 09:02:07;;;;;;;8.05;4.65;;;;;;;;;;4994093;28;20018;-48
2023/12/26 09:04:33;;;;;;;9.27;5.55;;;;;;;;;;4994130;28;20031;-51
2023/12/26 09:06:59;;;;;;;7.55;4.45;;;;;;;;;;4994691;28;20068;-57
2023/12/26 09:09:26;;;;;;;8.55;5.10;;;;;;;;;;4997515;28;20437;-55
2023/12/26 09:11:56;;;;;;;16.02;5.95;;;;;;;;;;4977193;28;20401;-58
2023/12/26 09:14:22;;;;;;;8.30;4.90;;;;;;;;;;4970818;28;20440;-57
2023/12/26 09:16:48;;;;;;;9.95;5.00;;;;;;;;;;4974901;28;20037;-55
2023/12/26 09:19:15;;;;;;;7.80;4.63;;;;;;;;;;4998877;28;20079;-54
2023/12/26 09:21:41;;;;;;;7.72;4.60;;;;;;;;;;4988132;28;20040;-55
2023/12/26 09:24:07;;;;;;;8.00;4.80;;;;;;;;;;5013448;28;20038;-57
2023/12/26 09:26:33;;;;;;;9.25;5.03;;;;;;;;;;5013644;28;20041;-54
2023/12/26 09:28:59;;;;;;;8.10;4.80;;;;;;;;;;4996665;28;20341;-53
2023/12/26 09:31:25;;;;;;;8.32;4.90;;;;;;;;;;5013402;28;20084;-53
2023/12/26 09:33:51;;;;;;;8.48;4.95;;;;;;;;;;5013270;28;20096;-50
2023/12/26 09:36:17;;;;;;;8.43;4.95;;;;;;;;;;4997813;28;20026;-50
2023/12/26 09:38:43;;;;;;;8.32;4.80;;;;;;;;;;4974031;28;20043;-52
2023/12/26 09:41:13;;;;;;;8.05;4.78;;;;;;;;;;4973933;28;20097;-55
2023/12/26 09:43:40;;;;;;;8.15;4.80;;;;;;;;;;4956688;28;20042;-55
2023/12/26 09:46:07;;;;;;;8.10;4.80;;;;;;;;;;4974213;28;20023;-45
2023/12/26 09:48:33;;;;;;;8.30;4.90;;;;;;;;;;4956892;28;20023;-48
2023/12/26 09:51:00;;;;;;;8.50;5.03;;;;;;;;;;4974060;28;20026;-49
2023/12/26 09:53:27;;;;;;;11.50;5.20;;;;;;;;;;4974045;28;20026;-46
2023/12/26 09:55:53;;;;;;;8.30;4.90;;;;;;;;;;4974176;28;20052;-52
2023/12/26 09:58:20;;;;;;;7.97;4.75;;;;;;;;;;4973989;28;20097;-49
2023/12/26 10:00:47;;;;;;;12.32;5.90;;;;;;;;;;4973763;28;20396;-51
2023/12/26 10:03:14;;;;;;;8.18;4.80;;;;;;;;;;4973741;28;20030;-50
2023/12/26 10:05:40;;;;;;;9.18;4.88;;;;;;;;;;4973625;28;20030;-52
2023/12/26 10:08:06;;;;;;;8.73;4.90;;;;;;;;;;4973029;28;20082;-51
2023/12/26 10:10:32;;;;;;;10.48;4.93;;;;;;;;;;4973635;28;20102;-51
2023/12/26 10:12:59;;;;;;;8.30;4.90;;;;;;;;;;4973534;28;20026;-48
2023/12/26 10:15:27;;;;;;;8.32;4.95;;;;;;;;;;4956294;28;20026;-50
2023/12/26 10:17:53;;;;;;;9.60;6.15;;;;;;;;;;4973787;28;20031;-45
2023/12/26 10:20:20;;;;;;;8.55;5.05;;;;;;;;;;4956387;28;20125;-47
2023/12/26 10:22:46;;;;;;;9.00;5.10;;;;;;;;;;4973424;28;20038;-51
2023/12/26 10:25:13;;;;;;;19.70;5.20;;;;;;;;;;4973773;28;20037;-48
2023/12/26 10:27:40;;;;;;;9.52;5.50;;;;;;;;;;4973801;28;20388;-49
2023/12/26 10:30:07;;;;;;;8.40;5.10;;;;;;;;;;4974259;28;20038;-53
2023/12/26 10:32:32;;;;;;;8.75;5.13;;;;;;;;;;4973530;28;20651;-51
2023/12/26 10:35:19;;;;;;;7.95;4.72;;;;;;;;;;4973498;28;20023;-48
2023/12/26 10:37:45;;;;;;;8.63;4.93;;;;;;;;;;4973491;28;20041;-47
2023/12/26 10:40:11;;;;;;;8.93;5.00;;;;;;;;;;4973183;28;20121;-47
2023/12/26 10:42:39;;;;;;;8.40;5.00;;;;;;;;;;4973064;28;20035;-47
2023/12/26 10:45:05;;;;;;;8.25;4.85;;;;;;;;;;4972939;28;20444;-48
2023/12/26 10:47:32;;;;;;;7.80;4.60;;;;;;;;;;4973275;28;20181;-48
2023/12/26 10:49:59;;;;;;;9.25;6.35;;;;;;;;;;4955710;28;20027;-52
2023/12/26 10:52:26;;;;;;;9.02;5.28;;;;;;;;;;4972913;28;20026;-51
2023/12/26 10:54:54;;;;;;;9.68;5.43;;;;;;;;;;4973095;28;20042;-49
2023/12/26 10:57:21;;;;;;;9.90;5.30;;;;;;;;;;4973082;28;20643;-51
2023/12/26 13:51:29;;;;;;;19.67;6.82;;;;;;;;;;5050942;28;20060;-51
2023/12/26 13:54:13;;;;;;;14.85;6.55;;;;;;;;;;5050820;28;20021;-53
2023/12/26 13:56:58;;;;;;;23.88;7.78;;;;;;;;;;5051041;28;20021;-54
2023/12/26 13:59:43;;;;;;;9.43;5.60;;;;;;;;;;5049645;28;20033;-52
2023/12/26 14:02:27;;;;;;;9.30;5.53;;;;;;;;;;5050740;28;20483;-55
2023/12/26 14:05:12;;;;;;;9.30;5.40;;;;;;;;;;5050140;28;20021;-54
2023/12/26 14:07:57;;;;;;;11.77;5.53;;;;;;;;;;5050128;28;20013;-51
2023/12/26 14:10:42;;;;;;;13.18;5.80;;;;;;;;;;5050695;28;20064;-54
2023/12/26 14:13:26;;;;;;;8.98;5.30;;;;;;;;;;5053157;28;20021;-55
2023/12/26 14:16:12;;;;;;;9.90;5.50;;;;;;;;;;5070794;28;20479;-49
2023/12/26 14:18:57;;;;;;;9.10;5.35;;;;;;;;;;5070668;28;20039;-53
2023/12/26 14:21:41;;;;;;;8.95;5.30;;;;;;;;;;5048343;28;20112;-55
2023/12/26 14:24:26;;;;;;;9.18;5.40;;;;;;;;;;5050466;28;20441;-52
2023/12/26 14:27:10;;;;;;;9.57;5.35;;;;;;;;;;5050273;28;20033;-55
2023/12/26 14:29:55;;;;;;;8.55;4.82;;;;;;;;;;5058519;28;20032;-52
2023/12/26 14:32:39;;;;;;;7.95;4.70;;;;;;;;;;5044225;28;20439;-53
2023/12/26 14:35:24;;;;;;;8.63;4.90;;;;;;;;;;5049862;28;20596;-54
2023/12/26 14:38:09;;;;;;;8.70;5.10;;;;;;;;;;5048324;28;20074;-54
2023/12/26 14:40:56;;;;;;;12.10;4.70;;;;;;;;;;5045468;28;20022;-53
2023/12/26 14:43:42;;;;;;;7.37;4.40;;;;;;;;;;5042819;28;20108;-50
2023/12/26 14:46:27;;;;;;;9.25;4.97;;;;;;;;;;5050162;28;20366;-57
2023/12/26 14:49:11;;;;;;;7.60;4.55;;;;;;;;;;5046910;28;20025;-49
2023/12/26 14:51:56;;;;;;;7.70;4.60;;;;;;;;;;5049771;28;20025;-54
2023/12/26 14:54:41;;;;;;;9.85;5.20;;;;;;;;;;5056096;28;20061;-54
2023/12/26 14:57:25;;;;;;;8.60;5.10;;;;;;;;;;5051963;28;20048;-52
2023/12/26 15:00:10;;;;;;;8.45;5.00;;;;;;;;;;5051494;28;20383;-55
2023/12/26 15:02:36;;;;;;;8.50;5.05;;;;;;;;;;5051152;28;20013;-54
2023/12/26 15:05:02;;;;;;;8.05;4.80;;;;;;;;;;5061030;28;20036;-54
2023/12/26 15:07:28;;;;;;;8.32;4.97;;;;;;;;;;5050072;28;20028;-50
2023/12/26 15:09:54;;;;;;;8.50;4.90;;;;;;;;;;5049958;28;20109;-51
2023/12/26 15:12:20;;;;;;;8.70;5.10;;;;;;;;;;5049664;28;20457;-52
2023/12/26 15:14:46;;;;;;;13.73;6.10;;;;;;;;;;5050050;28;20096;-52
2023/12/26 15:17:12;;;;;;;14.20;5.30;;;;;;;;;;5049212;28;20505;-51
2023/12/26 15:19:38;;;;;;;10.23;6.40;;;;;;;;;;5047833;28;20025;-54
2023/12/26 15:22:04;;;;;;;10.48;5.18;;;;;;;;;;5051317;28;20027;-52
2023/12/26 15:24:30;;;;;;;11.80;6.00;;;;;;;;;;5069335;28;20055;-50
2023/12/26 15:26:56;;;;;;;8.60;5.10;;;;;;;;;;5069707;28;20028;-55
2023/12/26 15:29:23;;;;;;;8.90;5.28;;;;;;;;;;5069473;28;20052;-54
2023/12/26 15:31:49;;;;;;;8.60;5.10;;;;;;;;;;5069247;28;20091;-54
2023/12/26 15:34:15;;;;;;;8.45;5.00;;;;;;;;;;5062221;28;20028;-55
2023/12/26 15:36:41;;;;;;;8.60;5.10;;;;;;;;;;5048866;28;20594;-53
2023/12/26 15:39:11;;;;;;;8.30;4.97;;;;;;;;;;5047060;28;20033;-57
2023/12/26 15:41:37;;;;;;;8.82;5.20;;;;;;;;;;5048211;28;20036;-54
2023/12/26 15:44:03;;;;;;;8.80;5.20;;;;;;;;;;5047890;28;20540;-56
2023/12/26 15:46:29;;;;;;;9.80;6.85;;;;;;;;;;5048931;28;20039;-55
2023/12/26 15:48:55;;;;;;;8.70;5.20;;;;;;;;;;5048942;28;20043;-51
2023/12/26 15:51:24;;;;;;;9.30;5.70;;;;;;;;;;5048638;28;20510;-48
2023/12/26 15:53:50;;;;;;;;;;;;;;;;;;5049526;28;20025;-52
2023/12/26 15:56:29;;;;;;;8.68;5.18;;;;;;;;;;5047852;28;20320;-50
2023/12/26 15:58:55;;;;;;;8.55;5.07;;;;;;;;;;5048851;28;20032;-50
2023/12/26 16:01:21;;;;;;;12.50;5.50;;;;;;;;;;5048564;28;20490;-53
2023/12/26 16:03:49;;;;;;;11.07;6.03;;;;;;;;;;5048721;28;20021;-52
2023/12/26 16:06:18;;;;;;;9.38;5.55;;;;;;;;;;5048568;28;20108;-53
2023/12/26 16:08:44;;;;;;;14.18;6.22;;;;;;;;;;5047693;28;20025;-50
2023/12/26 16:11:10;;;;;;;10.07;5.90;;;;;;;;;;5048803;28;20059;-53
2023/12/26 16:13:36;;;;;;;9.13;5.40;;;;;;;;;;5048914;28;20486;-53
2023/12/26 16:16:03;;;;;;;9.20;5.40;;;;;;;;;;5049033;28;20490;-53
2023/12/26 16:18:29;;;;;;;8.52;5.07;;;;;;;;;;5048785;28;20075;-54
2023/12/26 16:20:55;;;;;;;8.93;5.25;;;;;;;;;;5048730;28;20029;-50
2023/12/26 16:23:22;;;;;;;9.07;5.38;;;;;;;;;;5048822;28;20036;-54
2023/12/26 16:25:48;;;;;;;9.30;5.35;;;;;;;;;;5048646;28;20051;-52
2023/12/26 16:28:14;;;;;;;10.50;5.80;;;;;;;;;;5048722;28;20024;-52
2023/12/26 16:30:40;;;;;;;8.90;5.30;;;;;;;;;;5048630;28;20036;-51
2023/12/26 16:33:06;;;;;;;9.13;5.30;;;;;;;;;;5048638;28;20025;-52
2023/12/26 16:35:32;;;;;;;10.02;5.50;;;;;;;;;;5048654;28;20100;-49
2023/12/26 16:37:58;;;;;;;21.38;8.25;;;;;;;;;;5048822;28;20549;-51
2023/12/26 16:40:24;;;;;;;9.77;5.90;;;;;;;;;;5048523;28;20025;-49
2023/12/26 16:42:50;;;;;;;14.65;7.55;;;;;;;;;;5049100;28;20037;-51
2023/12/26 16:45:17;;;;;;;9.10;5.40;;;;;;;;;;5048511;28;20033;-52
2023/12/26 16:47:43;;;;;;;9.10;5.35;;;;;;;;;;5048366;28;20487;-54
2023/12/26 16:50:09;;;;;;;9.00;5.30;;;;;;;;;;5048358;28;20029;-54
2023/12/26 16:52:35;;;;;;;9.98;5.80;;;;;;;;;;5047994;28;20029;-52
2023/12/26 16:55:01;;;;;;;10.00;5.50;;;;;;;;;;5048048;28;20021;-52
2023/12/26 16:57:28;;;;;;;8.90;5.20;;;;;;;;;;5048523;28;20406;-52
2023/12/26 16:59:55;;;;;;;8.70;5.18;;;;;;;;;;5048577;28;20390;-54
2023/12/26 17:02:21;;;;;;;9.70;5.72;;;;;;;;;;5048184;28;20029;-49
2023/12/26 17:04:47;;;;;;;11.50;5.28;;;;;;;;;;5046722;28;20375;-52
2023/12/26 17:07:13;;;;;;;8.02;4.70;;;;;;;;;;5047925;28;20383;-52
2023/12/26 17:09:40;;;;;;;10.85;5.10;;;;;;;;;;5048201;28;20017;-52
2023/12/26 17:12:07;;;;;;;8.38;4.97;;;;;;;;;;5047974;28;20070;-55
2023/12/26 17:14:33;;;;;;;8.60;5.10;;;;;;;;;;5047894;28;20029;-53
2023/12/26 17:16:59;;;;;;;8.38;5.00;;;;;;;;;;5048891;28;20023;-54
2023/12/26 17:19:25;;;;;;;8.60;5.10;;;;;;;;;;5051612;28;20394;-54
2023/12/26 17:21:51;;;;;;;8.45;5.00;;;;;;;;;;5051356;28;20545;-51
2023/12/26 17:24:18;;;;;;;9.95;5.53;;;;;;;;;;5051513;28;20407;-51
2023/12/26 17:27:02;;;;;;;8.82;5.20;;;;;;;;;;5051876;28;20078;-51